Time;durP1;ratioP1;P1;durP2;ratioP2;P2;SDS_P1;SDS_P2;PMS_P1;PMS_P2;Temp;Humidity;BMP_temperature;BMP_pressure;BME280_temperature;BME280_humidity;BME280_pressure;Samples;Min_cycle;Max_cycle;Signal;HPM_P1;HPM_P2
2022/07/12 00:00:47;;;;;;;3.67;2.30;;;;;;;15.19;49.63;95560.66;5044976;28;20036;-85
2022/07/12 00:03:13;;;;;;;4.50;2.10;;;;;;;15.66;50.56;95695.16;5065020;28;20296;-85
2022/07/12 00:05:38;;;;;;;5.15;2.30;;;;;;;15.70;49.61;95656.06;5062789;28;20418;-85
2022/07/12 00:08:06;;;;;;;4.40;2.42;;;;;;;15.58;49.40;95624.44;5061023;28;20036;-85
2022/07/12 00:10:32;;;;;;;4.28;2.50;;;;;;;15.23;49.20;95574.25;5046927;28;20092;-84
2022/07/12 00:12:57;;;;;;;4.93;2.15;;;;;;;15.62;50.24;95657.53;5065037;28;20067;-85
2022/07/12 00:15:23;;;;;;;7.93;2.05;;;;;;;16.03;50.62;95694.25;5052206;28;20040;-85
2022/07/12 00:17:49;;;;;;;6.68;2.65;;;;;;;15.83;50.53;95660.66;5062650;28;20493;-85
2022/07/12 00:20:14;;;;;;;12.40;2.92;;;;;;;15.59;50.31;95614.56;5062051;28;20047;-85
2022/07/12 00:22:40;;;;;;;8.50;2.40;;;;;;;15.97;50.46;95658.78;5061098;28;20626;-85
2022/07/12 00:25:06;;;;;;;6.05;2.45;;;;;;;16.14;50.96;95682.31;5080771;28;20031;-85
2022/07/12 00:27:31;;;;;;;4.25;2.50;;;;;;;13.27;50.21;95257.66;5062314;28;20035;-85
2022/07/12 00:29:56;;;;;;;6.45;2.45;;;;;;;15.73;50.87;95626.84;5062106;28;20802;-85
2022/07/12 00:32:22;;;;;;;6.72;3.08;;;;;;;15.66;50.69;95620.31;5061924;28;20032;-85
2022/07/12 00:34:47;;;;;;;8.93;2.50;;;;;;;14.81;50.68;95485.19;5063798;28;20459;-85
2022/07/12 00:37:13;;;;;;;4.35;2.53;;;;;;;15.72;51.14;95640.50;5060021;28;20036;-85
2022/07/12 00:39:38;;;;;;;6.80;2.70;;;;;;;15.70;50.73;95632.00;5060860;28;20570;-85
2022/07/12 00:42:04;;;;;;;7.55;2.60;;;;;;;15.87;51.25;95655.53;5064044;28;20422;-84
2022/07/12 00:44:33;;;;;;;3.83;2.75;;;;;;;16.03;51.28;95696.94;5044783;28;20492;-85
2022/07/12 00:46:59;;;;;;;8.73;2.85;;;;;;;15.52;52.24;95644.31;5064320;28;20440;-85
2022/07/12 00:49:24;;;;;;;4.72;2.67;;;;;;;14.85;52.29;95533.47;5057098;28;20036;-85
2022/07/12 00:51:50;;;;;;;3.20;2.30;;;;;;;15.06;52.81;95596.94;5046427;28;20037;-85
2022/07/12 00:54:16;;;;;;;5.00;2.80;;;;;;;15.31;52.68;95619.81;5053096;28;20047;-85
2022/07/12 00:56:43;;;;;;;6.75;2.90;;;;;;;15.65;53.35;95686.34;5075370;28;20429;-84
2022/07/12 00:59:08;;;;;;;5.00;2.60;;;;;;;15.30;53.35;95626.22;5061258;28;20059;-85
2022/07/12 01:01:34;;;;;;;7.70;3.00;;;;;;;15.44;54.24;95693.88;5062424;28;20048;-85
2022/07/12 01:04:01;;;;;;;5.00;3.33;;;;;;;15.16;54.21;95635.28;5061204;28;20596;-85
2022/07/12 01:06:26;;;;;;;5.05;2.53;;;;;;;15.37;54.23;95653.38;5061594;28;20096;-85
2022/07/12 01:08:52;;;;;;;3.15;2.33;;;;;;;15.37;54.01;95665.94;5070536;28;20051;-84
2022/07/12 01:11:18;;;;;;;6.22;2.83;;;;;;;15.35;54.49;95650.19;5061645;28;20032;-84
2022/07/12 01:13:45;;;;;;;5.72;2.60;;;;;;;14.59;54.35;95527.72;5066172;28;20089;-84
2022/07/12 01:16:13;;;;;;;6.05;2.97;;;;;;;15.39;54.24;95661.09;5079493;28;20036;-84
2022/07/12 01:18:39;;;;;;;3.63;2.50;;;;;;;14.98;54.04;95589.59;5066045;28;20514;-84
2022/07/12 01:21:07;;;;;;;3.42;2.80;;;;;;;15.38;54.06;95648.81;5078695;28;20028;-84
2022/07/12 01:23:34;;;;;;;4.82;2.67;;;;;;;14.83;54.17;95586.34;5060879;28;20368;-84
2022/07/12 01:26:00;;;;;;;5.50;3.00;;;;;;;15.38;53.94;95659.50;5054353;28;20043;-84
2022/07/12 01:28:25;;;;;;;6.65;3.03;;;;;;;14.58;54.42;95566.16;5044607;28;20068;-84
2022/07/12 01:30:51;;;;;;;7.35;2.70;;;;;;;15.14;54.09;95630.22;5054271;28;20123;-84
2022/07/12 01:33:17;;;;;;;5.82;2.63;;;;;;;15.02;54.16;95613.84;5062188;28;20552;-85
2022/07/12 01:35:43;;;;;;;6.55;2.88;;;;;;;15.12;54.60;95640.41;5048242;28;20289;-84
2022/07/12 01:38:09;;;;;;;6.22;2.88;;;;;;;15.27;54.95;95672.22;5071783;28;20571;-85
2022/07/12 01:40:35;;;;;;;4.20;2.72;;;;;;;15.02;54.88;95621.88;5078223;28;20078;-85
2022/07/12 01:43:01;;;;;;;6.97;3.10;;;;;;;15.29;54.60;95677.28;5062801;28;20032;-85
2022/07/12 01:45:27;;;;;;;5.25;2.80;;;;;;;14.99;54.07;95585.06;5058905;28;20043;-85
2022/07/12 01:47:53;;;;;;;7.07;3.40;;;;;;;15.24;54.06;95656.78;5042637;28;20156;-84
2022/07/12 01:50:19;;;;;;;7.07;3.60;;;;;;;14.89;53.17;95601.22;5045313;28;20036;-84
2022/07/12 01:52:45;;;;;;;5.85;3.53;;;;;;;15.52;53.11;95692.44;5078494;28;20081;-84
2022/07/12 01:55:11;;;;;;;10.40;3.67;;;;;;;15.29;53.02;95646.00;5060364;28;20070;-84
2022/07/12 01:57:38;;;;;;;8.90;3.60;;;;;;;15.19;54.19;95690.78;5059958;28;20126;-83
2022/07/12 02:00:05;;;;;;;4.78;3.45;;;;;;;15.24;54.04;95696.88;5059811;28;20028;-84
2022/07/12 02:02:32;;;;;;;12.52;3.67;;;;;;;14.97;54.02;95648.63;5061213;28;20058;-84
2022/07/12 02:04:59;;;;;;;8.55;3.60;;;;;;;14.70;53.33;95595.09;5053724;28;20059;-84
2022/07/12 02:07:25;;;;;;;6.05;4.22;;;;;;;14.45;53.75;95604.25;5052277;28;20028;-84
2022/07/12 02:09:51;;;;;;;6.95;3.50;;;;;;;14.34;54.69;95608.09;5047021;28;20534;-84
2022/07/12 02:12:16;;;;;;;10.27;4.13;;;;;;;14.84;54.64;95668.06;5076428;28;20032;-84
2022/07/12 02:14:42;;;;;;;8.02;3.63;;;;;;;14.98;54.29;95663.59;5060273;28;20028;-84
2022/07/12 02:17:07;;;;;;;8.80;4.30;;;;;;;13.83;54.25;95508.16;5071150;28;20046;-83
2022/07/12 02:19:32;;;;;;;10.55;4.07;;;;;;;14.35;55.17;95610.47;5077329;28;20031;-84
2022/07/12 02:21:58;;;;;;;10.55;4.15;;;;;;;13.93;54.95;95541.13;5057746;28;20040;-84
2022/07/12 02:24:24;;;;;;;9.05;3.97;;;;;;;14.45;54.96;95622.94;5056878;28;20450;-84
2022/07/12 02:26:49;;;;;;;6.88;3.63;;;;;;;13.19;54.42;95403.97;5059039;28;20055;-84
2022/07/12 02:29:15;;;;;;;9.93;3.75;;;;;;;14.11;54.82;95567.06;5059989;28;20108;-84
2022/07/12 02:31:40;;;;;;;5.95;3.80;;;;;;;14.83;54.55;95667.25;5047638;28;20579;-84
2022/07/12 02:34:06;;;;;;;5.28;3.83;;;;;;;14.51;55.68;95645.78;5048196;28;20028;-84
2022/07/12 02:36:33;;;;;;;12.75;3.80;;;;;;;14.44;55.17;95632.00;5043552;28;20039;-85
2022/07/12 02:39:02;;;;;;;8.75;4.03;;;;;;;14.77;56.07;95697.78;5055173;28;20119;-84
2022/07/12 02:41:28;;;;;;;10.43;4.13;;;;;;;13.02;55.13;95407.84;5070797;28;20527;-84
2022/07/12 02:43:54;;;;;;;8.32;3.85;;;;;;;13.56;55.60;95526.63;5053019;28;20178;-84
2022/07/12 02:46:19;;;;;;;5.03;3.80;;;;;;;14.70;55.40;95681.31;5082562;28;20621;-84
2022/07/12 02:48:44;;;;;;;8.85;4.28;;;;;;;14.47;55.39;95648.25;5053201;28;20044;-84
2022/07/12 02:51:10;;;;;;;7.65;4.13;;;;;;;14.75;55.31;95681.25;5057651;28;20040;-85
2022/07/12 02:53:36;;;;;;;10.13;3.85;;;;;;;13.37;56.02;95489.25;5059477;28;20307;-84
2022/07/12 02:56:02;;;;;;;12.30;4.40;;;;;;;14.03;55.45;95575.69;5078340;28;20063;-84
2022/07/12 02:58:28;;;;;;;5.57;3.70;;;;;;;13.80;55.89;95548.75;5065177;28;20047;-84
2022/07/12 03:00:53;;;;;;;10.50;4.40;;;;;;;13.29;56.09;95462.44;5059947;28;20024;-84
2022/07/12 03:03:19;;;;;;;8.32;4.45;;;;;;;14.29;56.29;95625.75;5049898;28;20031;-84
2022/07/12 03:05:44;;;;;;;8.93;3.75;;;;;;;14.43;56.41;95641.88;5078242;28;20546;-84
2022/07/12 03:08:11;;;;;;;10.93;3.75;;;;;;;14.92;56.11;95720.81;5059429;28;20031;-84
2022/07/12 03:10:37;;;;;;;6.05;3.88;;;;;;;13.21;56.17;95442.53;5051642;28;20039;-84
2022/07/12 03:13:03;;;;;;;5.68;4.00;;;;;;;14.44;56.37;95650.69;5054252;28;20040;-84
2022/07/12 03:15:29;;;;;;;10.63;3.90;;;;;;;14.93;56.28;95731.22;5055104;28;20040;-84
2022/07/12 03:17:55;;;;;;;8.20;4.38;;;;;;;14.62;55.72;95695.31;5068301;28;20029;-84
2022/07/12 03:20:21;;;;;;;9.88;3.67;;;;;;;14.93;55.85;95733.09;5062360;28;20051;-84
2022/07/12 03:22:49;;;;;;;9.02;4.40;;;;;;;15.03;55.72;95732.94;5058226;28;20028;-85
2022/07/12 03:25:16;;;;;;;10.43;3.42;;;;;;;14.83;54.72;95714.53;5075361;28;20025;-85
2022/07/12 03:27:41;;;;;;;7.35;3.30;;;;;;;14.08;54.36;95583.59;5052825;28;20152;-84
2022/07/12 03:30:08;;;;;;;6.35;3.42;;;;;;;14.06;54.30;95599.09;5062313;28;20150;-84
2022/07/12 03:32:33;;;;;;;5.63;3.53;;;;;;;14.69;54.26;95674.41;5062971;28;20032;-85
2022/07/12 03:34:59;;;;;;;4.28;3.30;;;;;;;14.70;54.08;95685.88;5063887;28;20033;-84
2022/07/12 03:37:24;;;;;;;9.70;3.95;;;;;;;14.50;54.43;95665.56;5054626;28;20037;-84
2022/07/12 03:39:50;;;;;;;8.93;3.50;;;;;;;14.77;54.18;95694.31;5055226;28;20032;-84
2022/07/12 03:42:15;;;;;;;15.80;5.10;;;;;;;13.86;53.20;95546.81;5081301;28;20509;-84
2022/07/12 03:44:41;;;;;;;13.07;4.65;;;;;;;14.67;52.82;95704.03;5062894;28;20119;-85
2022/07/12 03:47:06;;;;;;;9.50;4.65;;;;;;;14.45;52.38;95653.06;5062461;28;20024;-85
2022/07/12 03:49:32;;;;;;;10.63;4.30;;;;;;;14.63;52.03;95673.69;5061673;28;20056;-84
2022/07/12 03:51:57;;;;;;;8.52;4.05;;;;;;;14.16;52.01;95591.78;5055730;28;20032;-85
2022/07/12 03:54:23;;;;;;;11.43;4.80;;;;;;;14.11;52.44;95599.06;5081202;28;20485;-84
2022/07/12 03:59:32;;;;;;;13.13;5.30;;;;;;;14.61;52.45;95667.03;5075192;28;20067;-84
2022/07/12 04:01:58;;;;;;;14.20;3.90;;;;;;;13.91;52.46;95544.88;5081468;28;20242;-84
2022/07/12 04:04:23;;;;;;;7.88;3.95;;;;;;;14.88;52.24;95722.47;5056073;28;20036;-84
2022/07/12 04:06:49;;;;;;;12.18;3.67;;;;;;;14.46;52.13;95710.72;5081062;28;20032;-84
2022/07/12 04:09:15;;;;;;;7.18;3.47;;;;;;;13.57;53.03;95634.00;5062112;28;20043;-84
2022/07/12 04:11:40;;;;;;;6.50;3.78;;;;;;;13.61;52.49;95609.19;5062208;28;20642;-84
2022/07/12 04:14:06;;;;;;;13.40;5.63;;;;;;;14.05;52.43;95675.63;5055658;28;20024;-84
2022/07/12 04:16:31;;;;;;;10.45;3.97;;;;;;;13.52;52.25;95576.22;5061801;28;20076;-83
2022/07/12 04:18:57;;;;;;;8.73;3.88;;;;;;;14.25;53.46;95755.47;5061887;28;20119;-84
2022/07/12 04:21:22;;;;;;;5.15;3.50;;;;;;;13.72;53.85;95690.66;5061573;28;20129;-83
2022/07/12 04:23:48;;;;;;;11.40;4.45;;;;;;;14.27;53.79;95769.31;5056042;28;20136;-85
2022/07/12 04:26:13;;;;;;;15.18;4.60;;;;;;;13.91;53.79;95680.06;5073696;28;20402;-84
2022/07/12 04:28:39;;;;;;;7.15;4.40;;;;;;;13.46;53.24;95601.31;5062455;28;20079;-84
2022/07/12 04:31:06;;;;;;;8.70;4.70;;;;;;;13.80;53.06;95633.25;5054443;28;20559;-84
2022/07/12 04:33:32;;;;;;;12.77;9.05;;;;;;;14.23;53.53;95730.94;5060704;28;20197;-84
2022/07/12 04:35:57;;;;;;;10.77;8.15;;;;;;;14.11;53.99;95780.41;5062809;28;20559;-84
2022/07/12 04:38:22;;;;;;;13.68;6.53;;;;;;;13.41;53.91;95666.13;5079683;28;20047;-84
2022/07/12 04:40:48;;;;;;;10.32;6.93;;;;;;;13.69;53.83;95688.53;5060654;28;20097;-84
2022/07/12 04:43:13;;;;;;;24.33;6.50;;;;;;;13.57;54.28;95653.47;5063518;28;20390;-84
2022/07/12 04:45:39;;;;;;;12.05;5.78;;;;;;;13.59;53.80;95661.94;5070992;28;20036;-84
2022/07/12 04:48:04;;;;;;;12.68;6.00;;;;;;;13.71;54.12;95670.38;5061565;28;20032;-85
2022/07/12 04:50:30;;;;;;;9.88;4.32;;;;;;;13.88;53.52;95689.41;5062362;28;20047;-84
2022/07/12 04:52:55;;;;;;;13.98;4.63;;;;;;;13.73;53.23;95662.13;5058363;28;20109;-84
2022/07/12 04:55:20;;;;;;;12.70;4.05;;;;;;;14.14;53.42;95753.16;5061783;28;20039;-84
2022/07/12 04:57:46;;;;;;;11.73;4.63;;;;;;;14.33;53.58;95756.72;5076593;28;20480;-84
2022/07/12 05:00:12;;;;;;;8.65;4.25;;;;;;;13.34;53.22;95607.03;5079356;28;20479;-85
2022/07/12 05:02:37;;;;;;;10.60;3.85;;;;;;;14.66;52.74;95779.88;5057620;28;20114;-84
2022/07/12 05:05:03;;;;;;;14.85;4.30;;;;;;;14.07;53.24;95694.81;5078977;28;20032;-84
2022/07/12 05:07:28;;;;;;;11.48;4.35;;;;;;;14.18;52.70;95684.84;5062510;28;20044;-84
2022/07/12 05:09:54;;;;;;;8.27;4.60;;;;;;;14.41;52.07;95696.63;5061209;28;20027;-85
2022/07/12 05:12:19;;;;;;;14.50;4.38;;;;;;;13.52;53.08;95560.22;5060931;28;20043;-84
2022/07/12 05:14:45;;;;;;;9.98;4.72;;;;;;;15.06;52.04;95778.59;5057333;28;20028;-84
2022/07/12 05:17:11;;;;;;;14.80;5.22;;;;;;;14.97;52.30;95752.78;5078041;28;20043;-84
2022/07/12 05:19:39;;;;;;;16.55;4.82;;;;;;;15.24;52.09;95782.38;5080225;28;20161;-84
2022/07/12 05:22:05;;;;;;;20.65;5.32;;;;;;;14.77;51.98;95694.31;5061685;28;20350;-84
2022/07/12 05:24:30;;;;;;;15.35;4.63;;;;;;;15.27;51.73;95779.09;5072767;28;20034;-84
2022/07/12 05:26:56;;;;;;;13.20;5.45;;;;;;;14.76;52.44;95714.88;5058605;28;20040;-84
2022/07/12 05:29:21;;;;;;;15.50;4.55;;;;;;;14.96;52.40;95740.53;5053631;28;20044;-84
2022/07/12 05:31:47;;;;;;;15.30;5.47;;;;;;;14.43;52.75;95673.91;5073995;28;20543;-84
2022/07/12 05:34:13;;;;;;;11.57;4.75;;;;;;;14.77;52.98;95748.50;5061232;28;20816;-84
2022/07/12 05:36:39;;;;;;;15.18;5.85;;;;;;;14.03;52.96;95586.34;5077777;28;20032;-84
2022/07/12 05:39:04;;;;;;;18.88;5.30;;;;;;;14.36;52.36;95621.94;5064050;28;20861;-84
2022/07/12 05:41:30;;;;;;;19.45;5.70;;;;;;;15.24;52.12;95746.84;5055805;28;20051;-84
2022/07/12 05:43:55;;;;;;;16.35;5.35;;;;;;;14.42;52.50;95618.19;5072552;28;20039;-84
2022/07/12 05:46:21;;;;;;;12.55;5.38;;;;;;;15.06;52.48;95703.78;5062009;28;20079;-84
2022/07/12 05:48:46;;;;;;;15.93;5.43;;;;;;;14.74;51.80;95665.50;5058599;28;20505;-84
2022/07/12 05:53:56;;;;;;;12.55;5.05;;;;;;;14.92;52.26;95670.09;5076136;28;20838;-84
2022/07/12 05:56:21;;;;;;;11.93;4.78;;;;;;;15.21;52.17;95700.09;5077182;28;20036;-84
2022/07/12 05:58:47;;;;;;;9.93;5.03;;;;;;;15.41;52.39;95721.19;5059126;28;20086;-84
2022/07/12 06:01:12;;;;;;;13.52;5.00;;;;;;;15.82;51.93;95753.47;5071157;28;20560;-84
2022/07/12 06:03:38;;;;;;;16.30;5.22;;;;;;;15.57;51.63;95697.72;5076204;28;20025;-84
2022/07/12 06:06:04;;;;;;;19.08;4.90;;;;;;;15.47;51.56;95668.47;5059107;28;20035;-84
2022/07/12 06:08:30;;;;;;;15.98;5.28;;;;;;;16.08;51.03;95745.03;5059059;28;20028;-84
2022/07/12 06:10:55;;;;;;;20.85;5.43;;;;;;;16.05;51.49;95729.56;5059098;28;20054;-84
2022/07/12 06:13:21;;;;;;;18.02;5.30;;;;;;;15.74;51.09;95692.63;5058352;28;20054;-84
2022/07/12 06:15:46;;;;;;;13.93;4.47;;;;;;;15.64;51.53;95657.25;5072331;28;20044;-84
2022/07/12 06:18:12;;;;;;;13.13;4.50;;;;;;;16.21;51.34;95744.25;5075907;28;20051;-84
2022/07/12 06:20:37;;;;;;;20.23;4.40;;;;;;;15.67;51.56;95660.13;5057283;28;20040;-84
2022/07/12 06:23:03;;;;;;;19.77;4.88;;;;;;;16.33;51.51;95759.81;5058645;28;20971;-84
2022/07/12 06:25:28;;;;;;;15.48;4.00;;;;;;;15.28;51.42;95598.19;5060966;28;20763;-84
2022/07/12 06:27:53;;;;;;;15.57;4.70;;;;;;;16.20;51.43;95746.13;5062833;28;20051;-84
2022/07/12 06:30:21;;;;;;;9.90;3.50;;;;;;;16.29;51.46;95756.16;5060766;28;20043;-84
2022/07/12 06:32:48;;;;;;;13.55;3.80;;;;;;;16.33;51.38;95751.78;5061195;28;20090;-84
2022/07/12 06:35:14;;;;;;;14.85;3.95;;;;;;;15.66;51.17;95636.34;5077095;28;20036;-84
2022/07/12 06:37:40;;;;;;;10.00;3.45;;;;;;;16.38;51.08;95757.88;5063113;28;20043;-86
2022/07/12 06:40:06;;;;;;;10.90;3.50;;;;;;;16.08;50.95;95696.88;5061210;28;20865;-83
2022/07/12 06:42:32;;;;;;;8.88;3.38;;;;;;;15.74;50.90;95657.06;5083897;28;20607;-83
2022/07/12 06:44:58;;;;;;;10.82;3.90;;;;;;;16.38;50.75;95739.13;5064980;28;20134;-86
2022/07/12 06:47:23;;;;;;;10.65;3.72;;;;;;;16.47;50.00;95764.13;5061170;28;20181;-84
2022/07/12 06:49:49;;;;;;;14.75;3.65;;;;;;;16.07;50.29;95698.75;5062632;28;20060;-84
2022/07/12 06:52:15;;;;;;;9.02;3.67;;;;;;;15.95;50.61;95655.59;5079266;28;20044;-83
2022/07/12 06:54:41;;;;;;;8.75;3.10;;;;;;;16.02;49.91;95661.38;5056767;28;20040;-84
2022/07/12 06:57:06;;;;;;;10.27;3.58;;;;;;;15.97;49.80;95653.44;5057084;28;20066;-83
2022/07/12 06:59:32;;;;;;;14.80;3.92;;;;;;;16.71;49.54;95744.41;5058620;28;20062;-84
2022/07/12 07:01:57;;;;;;;10.43;3.40;;;;;;;15.50;49.23;95549.44;5076252;28;20035;-84
2022/07/12 07:04:24;;;;;;;5.93;3.00;;;;;;;16.50;49.56;95693.13;5062613;28;20032;-84
2022/07/12 07:06:49;;;;;;;11.10;2.83;;;;;;;16.64;48.11;95722.59;5057905;28;20036;-84
2022/07/12 07:09:15;;;;;;;5.00;2.20;;;;;;;16.87;47.47;95741.13;5056492;28;20043;-84
2022/07/12 07:11:41;;;;;;;9.20;2.22;;;;;;;16.42;47.96;95670.50;5052198;28;20870;-84
2022/07/12 07:14:06;;;;;;;7.93;2.25;;;;;;;16.24;46.41;95625.13;5051554;28;20109;-84
2022/07/12 07:16:32;;;;;;;9.85;3.00;;;;;;;17.14;47.11;95739.50;5043984;28;20049;-84
2022/07/12 07:18:58;;;;;;;6.53;2.33;;;;;;;16.93;46.62;95688.25;5056248;28;20184;-84
2022/07/12 07:21:24;;;;;;;8.82;2.10;;;;;;;17.27;45.84;95744.84;5066430;28;20044;-84
2022/07/12 07:23:50;;;;;;;8.48;1.92;;;;;;;17.07;45.63;95709.66;5050158;28;20036;-85
2022/07/12 07:26:15;;;;;;;9.50;2.38;;;;;;;17.39;44.88;95738.97;5058496;28;20036;-84
2022/07/12 07:31:24;;;;;;;5.95;2.00;;;;;;;17.06;45.53;95659.84;5078756;28;20177;-84
2022/07/12 07:33:50;;;;;;;13.00;1.85;;;;;;;17.17;43.91;95691.44;5059778;28;20040;-84
2022/07/12 07:36:15;;;;;;;19.40;2.80;;;;;;;17.25;44.51;95701.44;5056674;28;20136;-85
2022/07/12 07:38:41;;;;;;;8.02;2.33;;;;;;;16.94;43.61;95628.19;5060731;28;20180;-84
2022/07/12 07:41:06;;;;;;;11.52;2.13;;;;;;;16.72;43.52;95593.34;5070603;28;20058;-84
2022/07/12 07:43:32;;;;;;;7.70;1.75;;;;;;;17.02;43.80;95629.38;5057737;28;20028;-85
2022/07/12 07:45:57;;;;;;;9.10;2.40;;;;;;;17.27;43.62;95648.34;5054058;28;20032;-84
2022/07/12 07:48:23;;;;;;;13.80;2.22;;;;;;;16.33;40.43;95478.78;5056004;28;20040;-84
2022/07/12 07:50:48;;;;;;;9.75;2.42;;;;;;;17.57;42.97;95665.59;5057332;28;20034;-84
2022/07/12 07:53:14;;;;;;;15.77;2.70;;;;;;;17.83;43.00;95691.81;5050938;28;20034;-87
2022/07/12 07:55:40;;;;;;;9.20;1.98;;;;;;;17.63;43.11;95677.00;5053469;28;20811;-84
2022/07/12 07:58:05;;;;;;;10.45;2.15;;;;;;;17.67;42.67;95681.47;5059420;28;20051;-84
2022/07/12 08:00:31;;;;;;;16.15;2.08;;;;;;;17.58;41.99;95659.13;5073625;28;20036;-85
2022/07/12 08:02:57;;;;;;;5.90;2.08;;;;;;;16.51;42.33;95475.16;5057839;28;20040;-85
2022/07/12 08:05:23;;;;;;;7.10;1.45;;;;;;;18.15;40.42;95722.94;5060482;28;20040;-85
2022/07/12 08:07:48;;;;;;;12.32;3.25;;;;;;;18.20;41.86;95728.19;5077251;28;20040;-85
2022/07/12 08:10:14;;;;;;;5.60;1.90;;;;;;;17.94;42.10;95685.88;5078860;28;20032;-85
2022/07/12 08:12:39;;;;;;;7.80;2.17;;;;;;;17.90;41.21;95655.41;5064021;28;20458;-85
2022/07/12 08:15:06;;;;;;;14.70;3.55;;;;;;;17.10;39.31;95526.81;5082810;28;20039;-85
2022/07/12 08:17:31;;;;;;;10.18;1.45;;;;;;;18.29;38.25;95681.50;5071949;28;20044;-85
2022/07/12 08:19:57;;;;;;;4.85;1.45;;;;;;;18.40;38.94;95688.16;5062830;28;20036;-83
2022/07/12 08:22:22;;;;;;;10.80;2.00;;;;;;;18.64;39.31;95717.34;5082818;28;20040;-85
2022/07/12 08:24:47;;;;;;;7.03;1.60;;;;;;;17.67;37.39;95610.94;5058887;28;20029;-84
2022/07/12 08:27:13;;;;;;;7.85;1.65;;;;;;;18.00;38.91;95644.38;5061493;28;20039;-85
2022/07/12 08:29:38;;;;;;;10.73;1.65;;;;;;;17.78;38.34;95587.31;5053405;28;20489;-84
2022/07/12 08:32:05;;;;;;;6.70;1.58;;;;;;;18.22;38.38;95634.72;5060327;28;20031;-84
2022/07/12 08:34:30;;;;;;;4.25;1.45;;;;;;;18.62;37.58;95676.56;5059457;28;20067;-84
2022/07/12 08:36:56;;;;;;;5.50;1.40;;;;;;;18.00;37.62;95544.34;5056142;28;20050;-85
2022/07/12 08:39:21;;;;;;;5.03;2.13;;;;;;;18.69;38.85;95625.84;5058258;28;20797;-85
2022/07/12 08:41:47;;;;;;;5.32;1.70;;;;;;;18.88;38.03;95666.69;5074080;28;20506;-85
2022/07/12 08:44:12;;;;;;;13.50;2.40;;;;;;;19.12;38.84;95690.44;5060063;28;20092;-85
2022/07/12 08:46:38;;;;;;;10.98;2.13;;;;;;;18.94;39.99;95636.94;5078707;28;20077;-85
2022/07/12 08:49:09;;;;;;;3.67;1.42;;;;;;;19.36;38.76;95687.28;5073320;28;20137;-85
2022/07/12 08:51:35;;;;;;;7.75;1.60;;;;;;;18.94;36.86;95640.44;5071481;28;20037;-84
2022/07/12 08:54:12;;;;;;;9.02;1.58;;;;;;;18.75;36.59;95610.38;5061189;28;20466;-84
2022/07/12 08:56:42;;;;;;;5.78;1.40;;;;;;;19.16;36.21;95655.63;5081164;28;20032;-84
2022/07/12 08:59:19;;;;;;;14.73;1.95;;;;;;;19.53;36.86;95691.91;5059105;28;20056;-84
2022/07/12 09:01:52;;;;;;;7.82;2.08;;;;;;;19.27;36.87;95643.47;5073015;28;20700;-84
2022/07/12 09:04:23;;;;;;;9.48;1.50;;;;;;;19.66;36.58;95680.16;5051130;28;20047;-84
2022/07/12 09:06:48;;;;;;;6.93;1.50;;;;;;;18.88;36.95;95590.63;5064793;28;20096;-84
2022/07/12 09:09:32;;;;;;;4.13;1.50;;;;;;;18.48;37.07;95526.25;5071582;28;20032;-85
2022/07/12 09:11:57;;;;;;;6.30;1.58;;;;;;;19.06;37.14;95618.31;5062812;28;20036;-84
2022/07/12 09:14:23;;;;;;;7.38;1.98;;;;;;;19.25;36.29;95638.38;5075896;28;20057;-84
2022/07/12 09:17:12;;;;;;;5.70;1.40;;;;;;;19.07;35.33;95623.34;5055471;28;20060;-84
2022/07/12 09:19:38;;;;;;;7.95;1.23;;;;;;;19.47;34.84;95668.94;5055657;28;20031;-84
2022/07/12 09:22:13;;;;;;;5.55;1.25;;;;;;;19.64;35.06;95677.78;5056668;28;20751;-85
2022/07/12 09:24:38;;;;;;;4.18;1.33;;;;;;;19.28;34.84;95618.94;5058652;28;20031;-84
2022/07/12 09:27:04;;;;;;;4.68;1.38;;;;;;;18.60;36.84;95501.50;5073788;28;20042;-85
2022/07/12 09:29:31;;;;;;;7.90;1.25;;;;;;;19.77;35.89;95669.84;5054698;28;20466;-84
2022/07/12 09:37:26;;;;;;;7.95;1.30;;;;;;;19.15;36.21;95608.34;5072940;28;20141;-84
2022/07/12 09:39:53;;;;;;;4.45;1.52;;;;;;;19.76;35.65;95674.44;5047794;28;20036;-85
2022/07/12 09:42:19;;;;;;;7.60;1.23;;;;;;;19.49;35.02;95632.56;5058882;28;20082;-84
2022/07/12 09:44:45;;;;;;;6.80;1.50;;;;;;;19.49;35.35;95599.47;5057939;28;20170;-84
2022/07/12 09:47:13;;;;;;;5.22;1.50;;;;;;;19.84;35.96;95646.72;5049170;28;20072;-84
2022/07/12 09:49:39;;;;;;;4.13;1.25;;;;;;;20.02;35.65;95667.09;5055858;28;20064;-84
2022/07/12 09:52:06;;;;;;;5.05;1.52;;;;;;;20.23;34.74;95621.41;5068461;28;20040;-84
2022/07/12 09:54:38;;;;;;;3.88;1.35;;;;;;;21.33;32.46;95673.47;5051060;28;20131;-84
2022/07/12 09:57:09;;;;;;;5.57;1.38;;;;;;;21.13;31.72;95611.06;5044458;28;20081;-85
2022/07/12 09:59:37;;;;;;;9.70;1.48;;;;;;;20.85;31.71;95531.81;5054551;28;20060;-85
2022/07/12 10:02:05;;;;;;;6.85;1.30;;;;;;;21.75;31.64;95645.28;5047285;28;20159;-85
2022/07/12 10:04:32;;;;;;;5.82;1.20;;;;;;;22.74;30.02;95661.34;5051180;28;20797;-84
2022/07/12 10:06:58;;;;;;;9.75;1.45;;;;;;;23.09;29.50;95665.16;5051085;28;20039;-86
2022/07/12 10:09:26;;;;;;;8.32;1.38;;;;;;;22.96;29.56;95647.34;5052048;28;20135;-85
2022/07/12 10:11:53;;;;;;;9.45;1.55;;;;;;;22.96;28.43;95603.31;5054993;28;20183;-85
2022/07/12 10:14:20;;;;;;;4.75;1.30;;;;;;;21.28;28.08;95328.41;5055313;28;20040;-85
2022/07/12 10:16:49;;;;;;;2.78;1.20;;;;;;;22.85;27.57;95542.69;5055314;28;20078;-85
2022/07/12 10:19:25;;;;;;;6.25;1.88;;;;;;;23.78;27.17;95619.94;5055334;28;20075;-85
2022/07/12 10:21:53;;;;;;;5.18;1.30;;;;;;;23.38;27.04;95588.28;5050262;28;20087;-85
2022/07/12 10:24:47;;;;;;;7.32;1.70;;;;;;;23.46;26.89;95657.72;5059392;28;20066;-85
2022/07/12 10:27:15;;;;;;;5.40;1.17;;;;;;;23.44;27.05;95670.00;5060056;28;20035;-85
2022/07/12 10:29:43;;;;;;;3.03;1.23;;;;;;;23.49;27.92;95664.41;5057214;28;20044;-85
2022/07/12 10:32:25;;;;;;;3.13;1.25;;;;;;;23.02;27.97;95591.91;5076027;28;20040;-85
2022/07/12 10:34:57;;;;;;;3.92;1.00;;;;;;;24.07;27.55;95657.47;5057341;28;20202;-85
2022/07/12 10:37:27;;;;;;;3.80;1.40;;;;;;;24.55;26.68;95645.56;5054631;28;20039;-86
2022/07/12 10:40:22;;;;;;;5.07;1.23;;;;;;;24.66;25.32;95598.91;5075714;28;20059;-85
2022/07/12 10:43:03;;;;;;;4.97;1.42;;;;;;;25.48;24.73;95637.53;5040969;28;20136;-85
2022/07/12 10:45:30;;;;;;;2.47;1.20;;;;;;;24.33;25.94;95512.56;5054876;28;20585;-85
2022/07/12 10:47:57;;;;;;;3.70;1.25;;;;;;;25.59;25.80;95638.56;5058424;28;20067;-86
2022/07/12 10:51:00;;;;;;;3.25;1.20;;;;;;;24.79;26.82;95633.72;5057631;28;20039;-85
2022/07/12 10:53:42;;;;;;;5.05;1.20;;;;;;;23.85;27.23;95614.72;5054162;28;20794;-85
2022/07/12 10:56:09;;;;;;;6.30;1.73;;;;;;;23.84;27.24;95640.22;5057367;28;20046;-85
2022/07/12 10:58:35;;;;;;;6.32;1.35;;;;;;;23.46;26.75;95562.19;5070571;28;20052;-85
2022/07/12 11:01:04;;;;;;;4.82;1.40;;;;;;;24.53;27.03;95655.94;5055949;28;20040;-85
2022/07/12 11:03:43;;;;;;;2.80;1.10;;;;;;;24.35;26.84;95635.75;5053827;28;20047;-85
2022/07/12 11:06:11;;;;;;;5.65;0.98;;;;;;;23.86;25.37;95464.63;5051609;28;20059;-85
2022/07/12 11:08:47;;;;;;;5.25;1.20;;;;;;;-143.51;100.00;62207.84;5047178;28;20214;-85
2022/07/12 11:11:12;;;;;;;7.57;1.10;;;;;;;23.99;25.57;95476.13;5054369;28;20024;-85
2022/07/12 11:13:38;;;;;;;5.75;1.10;;;;;;;23.77;26.06;95363.81;5049596;28;20040;-86
2022/07/12 11:16:04;;;;;;;5.03;1.40;;;;;;;24.94;25.94;95599.56;5054421;28;20032;-85
2022/07/12 11:18:30;;;;;;;4.32;1.30;;;;;;;23.67;25.60;95375.97;5050268;28;20040;-86
2022/07/12 11:21:00;;;;;;;7.18;1.08;;;;;;;24.64;25.96;95490.00;5052544;28;20044;-85
2022/07/12 11:23:26;;;;;;;4.95;1.60;;;;;;;25.76;26.22;95634.63;5069402;28;20036;-85
2022/07/12 11:26:11;;;;;;;4.85;1.00;;;;;;;25.76;26.22;95634.63;5071904;28;20559;-85
2022/07/12 11:28:37;;;;;;;8.90;1.52;;;;;;;25.78;26.67;95639.72;5053101;28;20032;-85
2022/07/12 11:31:11;;;;;;;4.90;1.42;;;;;;;25.43;25.97;95618.03;5071746;28;20126;-85
2022/07/12 11:33:42;;;;;;;4.07;1.25;;;;;;;25.20;26.09;62207.84;5061034;28;20030;-86
2022/07/12 11:36:09;;;;;;;4.63;1.20;;;;;;;22.98;28.56;95506.38;5082195;28;20032;-85
2022/07/12 11:38:37;;;;;;;4.90;1.35;;;;;;;23.53;28.53;95580.56;5059111;28;20578;-85
2022/07/12 11:41:04;;;;;;;6.47;1.13;;;;;;;23.46;28.53;95525.09;5058088;28;20350;-86
2022/07/12 11:43:31;;;;;;;6.50;1.50;;;;;;;23.89;28.93;95639.16;5062966;28;20044;-85